createdAt,value
2022-07-25T00:00:55.009Z,17.80
2022-07-25T00:01:54.975Z,17.78
2022-07-25T00:02:54.950Z,17.80
2022-07-25T00:03:55.121Z,17.79
2022-07-25T00:04:55.011Z,17.80
2022-07-25T00:05:55.105Z,17.79
2022-07-25T00:06:55.025Z,17.76
2022-07-25T00:07:55.098Z,17.78
2022-07-25T00:08:54.852Z,17.76
2022-07-25T00:09:55.102Z,17.76
2022-07-25T00:10:54.813Z,17.76
2022-07-25T00:11:54.893Z,17.75
2022-07-25T00:12:54.935Z,17.75
2022-07-25T00:13:54.805Z,17.75
2022-07-25T00:14:54.744Z,17.72
2022-07-25T00:15:54.854Z,17.72
2022-07-25T00:16:54.933Z,17.71
2022-07-25T00:17:54.797Z,17.69
2022-07-25T00:18:54.718Z,17.68
2022-07-25T00:19:54.708Z,17.68
2022-07-25T00:20:54.961Z,17.66
2022-07-25T00:21:54.806Z,17.65
2022-07-25T00:22:54.737Z,17.65
2022-07-25T00:23:54.767Z,17.59
2022-07-25T00:24:54.629Z,17.60
2022-07-25T00:25:54.633Z,17.57
2022-07-25T00:26:54.612Z,17.56
2022-07-25T00:27:54.606Z,17.54
2022-07-25T00:28:54.644Z,17.54
2022-07-25T00:29:54.571Z,17.53
2022-07-25T00:30:54.715Z,17.53
2022-07-25T00:31:54.541Z,17.53
2022-07-25T00:32:54.612Z,17.52
2022-07-25T00:33:54.501Z,17.52
2022-07-25T00:34:54.547Z,17.50
2022-07-25T00:35:54.527Z,17.53
2022-07-25T00:36:54.468Z,17.49
2022-07-25T00:37:54.468Z,17.49
2022-07-25T00:38:54.447Z,17.49
2022-07-25T00:39:54.478Z,17.46
2022-07-25T00:40:55.665Z,17.42
2022-07-25T00:41:54.459Z,17.42
2022-07-25T00:42:54.409Z,17.42
2022-07-25T00:43:54.458Z,17.42
2022-07-25T00:44:54.406Z,17.42
2022-07-25T00:45:54.489Z,17.39
2022-07-25T00:46:54.551Z,17.42
2022-07-25T00:47:54.463Z,17.42
2022-07-25T00:48:54.402Z,17.39
2022-07-25T00:49:54.452Z,17.39
2022-07-25T00:50:54.302Z,17.39
2022-07-25T00:51:54.533Z,17.39
2022-07-25T00:52:54.292Z,17.38
2022-07-25T00:53:54.452Z,17.35
2022-07-25T00:54:54.299Z,17.34
2022-07-25T00:55:54.468Z,17.34
2022-07-25T00:56:54.297Z,17.32
2022-07-25T00:57:54.245Z,17.32
2022-07-25T00:58:54.308Z,17.32
2022-07-25T00:59:54.176Z,17.31
2022-07-25T01:00:54.147Z,17.32
2022-07-25T01:01:54.179Z,17.30
2022-07-25T01:02:54.459Z,17.31
2022-07-25T01:03:54.140Z,17.30
2022-07-25T01:04:54.325Z,17.28
2022-07-25T01:05:54.177Z,17.27
2022-07-25T01:06:54.093Z,17.27
2022-07-25T01:07:54.146Z,17.27
2022-07-25T01:08:54.386Z,17.24
2022-07-25T01:09:54.134Z,17.24
2022-07-25T01:10:54.045Z,17.23
2022-07-25T01:11:54.133Z,17.24
2022-07-25T01:12:54.013Z,17.23
2022-07-25T01:13:54.031Z,17.22
2022-07-25T01:14:53.966Z,17.20
2022-07-25T01:15:54.211Z,17.20
2022-07-25T01:16:53.985Z,17.20
2022-07-25T01:17:53.927Z,17.19
2022-07-25T01:18:53.978Z,17.14
2022-07-25T01:19:54.226Z,17.16
2022-07-25T01:20:54.048Z,17.16
2022-07-25T01:21:53.946Z,17.12
2022-07-25T01:22:53.967Z,17.10
2022-07-25T01:23:54.126Z,17.10
2022-07-25T01:24:53.822Z,17.10
2022-07-25T01:25:53.846Z,17.10
2022-07-25T01:26:54.060Z,17.07
2022-07-25T01:27:55.705Z,17.09
2022-07-25T01:28:53.805Z,17.13
2022-07-25T01:29:53.812Z,17.10
2022-07-25T01:30:53.843Z,17.10
2022-07-25T01:31:53.812Z,17.09
2022-07-25T01:32:53.769Z,17.09
2022-07-25T01:33:53.813Z,17.07
2022-07-25T01:34:53.712Z,17.09
2022-07-25T01:35:53.687Z,17.10
2022-07-25T01:36:53.667Z,17.09
2022-07-25T01:37:53.729Z,17.09
2022-07-25T01:38:54.053Z,17.09
2022-07-25T01:39:53.628Z,17.05
2022-07-25T01:40:53.656Z,17.04
2022-07-25T01:41:53.598Z,17.05
2022-07-25T01:42:53.726Z,17.02
2022-07-25T01:43:53.817Z,17.01
2022-07-25T01:44:53.652Z,17.01
2022-07-25T01:45:53.616Z,16.98
2022-07-25T01:46:53.652Z,16.99
2022-07-25T01:47:53.550Z,16.98
2022-07-25T01:48:53.817Z,16.98
2022-07-25T01:49:53.491Z,16.95
2022-07-25T01:50:53.652Z,16.92
2022-07-25T01:51:53.532Z,16.94
2022-07-25T01:52:53.674Z,16.92
2022-07-25T01:53:53.491Z,16.92
2022-07-25T01:54:53.676Z,16.94
2022-07-25T01:55:53.498Z,16.91
2022-07-25T01:56:53.686Z,16.89
2022-07-25T01:57:53.387Z,16.87
2022-07-25T01:58:53.677Z,16.87
2022-07-25T01:59:53.535Z,16.91
2022-07-25T02:00:53.432Z,16.94
2022-07-25T02:01:53.546Z,16.92
2022-07-25T02:02:53.346Z,16.91
2022-07-25T02:03:53.518Z,16.87
2022-07-25T02:04:53.429Z,16.86
2022-07-25T02:05:53.522Z,16.80
2022-07-25T02:06:53.401Z,16.80
2022-07-25T02:07:53.311Z,16.80
2022-07-25T02:08:53.332Z,16.80
2022-07-25T02:09:56.726Z,16.79
2022-07-25T02:10:53.338Z,16.76
2022-07-25T02:11:53.492Z,16.77
2022-07-25T02:12:53.206Z,16.77
2022-07-25T02:13:53.235Z,16.76
2022-07-25T02:14:53.347Z,16.77
2022-07-25T02:15:53.207Z,16.74
2022-07-25T02:16:53.373Z,16.73
2022-07-25T02:17:53.182Z,16.69
2022-07-25T02:18:53.356Z,16.72
2022-07-25T02:19:53.196Z,16.72
2022-07-25T02:20:53.357Z,16.72
2022-07-25T02:21:53.177Z,16.72
2022-07-25T02:22:53.047Z,16.68
2022-07-25T02:23:53.187Z,16.68
2022-07-25T02:24:53.352Z,16.66
2022-07-25T02:25:53.199Z,16.65
2022-07-25T02:26:52.993Z,16.65
2022-07-25T02:27:53.181Z,16.65
2022-07-25T02:28:53.042Z,16.65
2022-07-25T02:29:53.202Z,16.65
2022-07-25T02:30:53.105Z,16.65
2022-07-25T02:31:52.924Z,16.64
2022-07-25T02:32:53.033Z,16.61
2022-07-25T02:33:52.922Z,16.62
2022-07-25T02:34:53.036Z,16.62
2022-07-25T02:35:52.969Z,16.59
2022-07-25T02:36:52.857Z,16.58
2022-07-25T02:37:52.886Z,16.59
2022-07-25T02:38:52.841Z,16.57
2022-07-25T02:39:52.817Z,16.58
2022-07-25T02:40:52.798Z,16.57
2022-07-25T02:41:52.948Z,16.55
2022-07-25T02:42:52.786Z,16.55
2022-07-25T02:43:52.877Z,16.54
2022-07-25T02:44:52.760Z,16.50
2022-07-25T02:45:53.039Z,16.51
2022-07-25T02:46:53.042Z,16.50
2022-07-25T02:47:53.191Z,16.49
2022-07-25T02:48:52.799Z,16.47
2022-07-25T02:49:52.851Z,16.47
2022-07-25T02:50:52.724Z,16.47
2022-07-25T02:51:52.852Z,16.47
2022-07-25T02:52:52.711Z,16.46
2022-07-25T02:53:58.134Z,16.47
2022-07-25T02:54:52.692Z,16.44
2022-07-25T02:55:52.877Z,16.41
2022-07-25T02:56:52.707Z,16.43
2022-07-25T02:57:52.576Z,16.41
2022-07-25T02:58:52.586Z,16.43
2022-07-25T02:59:52.597Z,16.43
2022-07-25T03:00:52.767Z,16.39
2022-07-25T03:01:52.620Z,16.40
2022-07-25T03:02:52.697Z,16.39
2022-07-25T03:03:52.615Z,16.40
2022-07-25T03:04:52.693Z,16.40
2022-07-25T03:05:52.612Z,16.43
2022-07-25T03:06:52.469Z,16.41
2022-07-25T03:07:52.530Z,16.40
2022-07-25T03:08:52.443Z,16.39
2022-07-25T03:09:52.533Z,16.37
2022-07-25T03:10:52.472Z,16.39
2022-07-25T03:11:52.533Z,16.40
2022-07-25T03:12:52.409Z,16.39
2022-07-25T03:13:52.534Z,16.37
2022-07-25T03:14:52.371Z,16.37
2022-07-25T03:15:52.548Z,16.34
2022-07-25T03:16:52.502Z,16.32
2022-07-25T03:17:52.538Z,16.32
2022-07-25T03:18:52.386Z,16.32
2022-07-25T03:19:52.297Z,16.34
2022-07-25T03:20:52.377Z,16.32
2022-07-25T03:21:52.538Z,16.31
2022-07-25T03:22:52.318Z,16.31
2022-07-25T03:23:52.973Z,16.31
2022-07-25T03:24:52.377Z,16.29
2022-07-25T03:25:52.212Z,16.29
2022-07-25T03:26:52.421Z,16.26
2022-07-25T03:27:52.202Z,16.28
2022-07-25T03:28:52.241Z,16.29
2022-07-25T03:29:52.162Z,16.26
2022-07-25T03:30:52.169Z,16.26
2022-07-25T03:31:52.238Z,16.26
2022-07-25T03:32:52.117Z,16.26
2022-07-25T03:33:52.186Z,16.28
2022-07-25T03:34:52.070Z,16.26
2022-07-25T03:35:52.234Z,16.26
2022-07-25T03:36:52.077Z,16.26
2022-07-25T03:37:52.059Z,16.28
2022-07-25T03:38:52.126Z,16.31
2022-07-25T03:39:52.219Z,16.31
2022-07-25T03:40:52.009Z,16.29
2022-07-25T03:41:51.987Z,16.32
2022-07-25T03:42:51.988Z,16.29
2022-07-25T03:43:51.970Z,16.32
2022-07-25T03:44:52.118Z,16.32
2022-07-25T03:45:52.070Z,16.34
2022-07-25T03:46:52.082Z,16.34
2022-07-25T03:47:51.924Z,16.32
2022-07-25T03:48:52.164Z,16.31
2022-07-25T03:49:51.923Z,16.32
2022-07-25T03:50:51.931Z,16.36
2022-07-25T03:51:51.913Z,16.36
2022-07-25T03:52:51.841Z,16.36
2022-07-25T03:53:51.892Z,16.37
2022-07-25T03:54:51.812Z,16.40
2022-07-25T03:55:51.952Z,16.40
2022-07-25T03:56:51.806Z,16.41
2022-07-25T03:57:51.897Z,16.44
2022-07-25T03:58:51.779Z,16.46
2022-07-25T03:59:51.897Z,16.47
2022-07-25T04:00:51.888Z,16.47
2022-07-25T04:01:52.022Z,16.49
2022-07-25T04:02:51.775Z,16.51
2022-07-25T04:03:51.897Z,16.54
2022-07-25T04:04:51.726Z,16.54
2022-07-25T04:05:51.897Z,16.55
2022-07-25T04:06:51.848Z,16.58
2022-07-25T04:07:51.901Z,16.57
2022-07-25T04:08:51.732Z,16.62
2022-07-25T04:09:51.893Z,16.65
2022-07-25T04:10:51.733Z,16.66
2022-07-25T04:11:51.662Z,16.72
2022-07-25T04:12:51.732Z,16.73
2022-07-25T04:13:51.583Z,16.76
2022-07-25T04:14:51.548Z,16.77
2022-07-25T04:15:51.574Z,16.80
2022-07-25T04:16:51.640Z,16.82
2022-07-25T04:17:51.686Z,16.84
2022-07-25T04:18:51.885Z,16.89
2022-07-25T04:19:51.597Z,16.91
2022-07-25T04:20:51.736Z,16.95
2022-07-25T04:21:51.465Z,17.01
2022-07-25T04:22:51.457Z,17.04
2022-07-25T04:23:51.654Z,17.07
2022-07-25T04:24:51.428Z,17.13
2022-07-25T04:25:51.406Z,17.16
2022-07-25T04:26:51.415Z,17.19
2022-07-25T04:27:51.581Z,17.22
2022-07-25T04:28:51.439Z,17.24
2022-07-25T04:29:51.453Z,17.28
2022-07-25T04:30:51.410Z,17.34
2022-07-25T04:31:51.694Z,17.38
2022-07-25T04:32:51.431Z,17.41
2022-07-25T04:33:51.300Z,17.46
2022-07-25T04:34:51.292Z,17.47
2022-07-25T04:35:51.335Z,17.53
2022-07-25T04:36:51.253Z,17.56
2022-07-25T04:37:51.269Z,17.59
2022-07-25T04:38:51.426Z,17.60
2022-07-25T04:39:51.266Z,17.66
2022-07-25T04:40:51.267Z,17.71
2022-07-25T04:41:51.259Z,17.75
2022-07-25T04:42:51.436Z,17.79
2022-07-25T04:43:51.278Z,17.82
2022-07-25T04:44:51.436Z,17.86
2022-07-25T04:45:51.187Z,17.88
2022-07-25T04:46:51.441Z,17.91
2022-07-25T04:47:51.122Z,17.94
2022-07-25T04:48:51.301Z,18.00
2022-07-25T04:49:51.091Z,18.03
2022-07-25T04:50:51.124Z,18.08
2022-07-25T04:51:51.271Z,18.13
2022-07-25T04:52:51.091Z,18.16
2022-07-25T04:53:51.057Z,18.19
2022-07-25T04:54:51.011Z,18.26
2022-07-25T04:55:51.025Z,18.31
2022-07-25T04:56:51.091Z,18.34
2022-07-25T04:57:51.345Z,18.39
2022-07-25T04:58:51.105Z,18.39
2022-07-25T04:59:50.957Z,18.41
2022-07-25T05:00:51.195Z,18.49
2022-07-25T05:01:51.007Z,18.52
2022-07-25T05:02:50.986Z,18.60
2022-07-25T05:03:50.982Z,18.68
2022-07-25T05:04:52.106Z,18.82
2022-07-25T05:05:50.959Z,18.89
2022-07-25T05:06:51.085Z,19.04
2022-07-25T05:07:51.006Z,19.16
2022-07-25T05:08:51.107Z,19.23
2022-07-25T05:09:50.941Z,19.39
2022-07-25T05:10:51.120Z,19.53
2022-07-25T05:11:55.987Z,19.66
2022-07-25T05:12:51.103Z,19.85
2022-07-25T05:13:51.012Z,20.07
2022-07-25T05:14:50.771Z,20.27
2022-07-25T05:15:50.951Z,20.67
2022-07-25T05:16:50.904Z,21.48
2022-07-25T05:17:50.931Z,22.55
2022-07-25T05:18:50.855Z,23.56
2022-07-25T05:19:50.936Z,24.47
2022-07-25T05:20:50.785Z,25.22
2022-07-25T05:21:50.691Z,26.04
2022-07-25T05:22:50.786Z,26.81
2022-07-25T05:23:50.716Z,27.34
2022-07-25T05:24:50.798Z,27.81
2022-07-25T05:25:50.619Z,28.23
2022-07-25T05:26:50.799Z,28.52
2022-07-25T05:27:50.576Z,28.80
2022-07-25T05:28:50.784Z,28.90
2022-07-25T05:29:50.614Z,29.00
2022-07-25T05:30:50.771Z,29.12
2022-07-25T05:31:50.603Z,29.22
2022-07-25T05:32:50.774Z,29.25
2022-07-25T05:33:50.484Z,29.20
2022-07-25T05:34:50.842Z,29.20
2022-07-25T05:35:50.611Z,29.31
2022-07-25T05:36:50.466Z,29.34
2022-07-25T05:37:50.467Z,29.49
2022-07-25T05:38:50.448Z,29.69
2022-07-25T05:39:50.436Z,29.87
2022-07-25T05:40:50.536Z,30.08
2022-07-25T05:41:50.406Z,30.06
2022-07-25T05:42:50.390Z,30.14
2022-07-25T05:43:50.617Z,30.13
2022-07-25T05:44:50.476Z,30.38
2022-07-25T05:45:50.406Z,30.48
2022-07-25T05:46:50.427Z,30.70
2022-07-25T05:47:50.339Z,30.91
2022-07-25T05:48:50.403Z,30.99
2022-07-25T05:49:50.292Z,31.25
2022-07-25T05:50:50.389Z,31.39
2022-07-25T05:51:50.327Z,31.54
2022-07-25T05:52:50.271Z,31.55
2022-07-25T05:53:50.311Z,31.78
2022-07-25T05:54:50.240Z,32.08
2022-07-25T05:55:50.291Z,32.16
2022-07-25T05:56:50.276Z,31.86
2022-07-25T05:57:50.222Z,31.92
2022-07-25T05:58:50.197Z,32.16
2022-07-25T05:59:50.311Z,32.20
2022-07-25T06:00:50.457Z,31.73
2022-07-25T06:01:50.356Z,31.54
2022-07-25T06:02:50.414Z,31.77
2022-07-25T06:03:50.317Z,31.85
2022-07-25T06:04:50.161Z,32.04
2022-07-25T06:05:50.132Z,32.26
2022-07-25T06:06:50.162Z,32.38
2022-07-25T06:07:50.081Z,32.56
2022-07-25T06:08:50.472Z,32.81
2022-07-25T06:09:50.070Z,32.90
2022-07-25T06:10:50.150Z,32.95
2022-07-25T06:11:59.902Z,32.91
2022-07-25T06:12:50.018Z,33.13
2022-07-25T06:13:50.106Z,33.35
2022-07-25T06:14:50.137Z,33.38
2022-07-25T06:15:50.004Z,33.47
2022-07-25T06:16:50.317Z,33.77
2022-07-25T06:17:49.982Z,33.98
2022-07-25T06:18:50.145Z,33.85
2022-07-25T06:19:50.064Z,33.53
2022-07-25T06:20:50.149Z,32.86
2022-07-25T06:21:49.986Z,33.15
2022-07-25T06:22:50.267Z,33.35
2022-07-25T06:23:49.993Z,33.45
2022-07-25T06:24:49.881Z,33.57
2022-07-25T06:25:50.654Z,33.54
2022-07-25T06:26:49.865Z,33.75
2022-07-25T06:27:49.971Z,33.98
2022-07-25T06:28:49.880Z,34.22
2022-07-25T06:29:49.971Z,34.14
2022-07-25T06:30:49.820Z,34.24
2022-07-25T06:31:50.155Z,34.32
2022-07-25T06:32:49.811Z,34.31
2022-07-25T06:33:50.321Z,34.38
2022-07-25T06:34:49.806Z,34.46
2022-07-25T06:35:49.977Z,34.69
2022-07-25T06:36:49.837Z,34.75
2022-07-25T06:37:49.966Z,34.76
2022-07-25T06:38:49.817Z,34.75
2022-07-25T06:39:49.801Z,34.85
2022-07-25T06:40:49.817Z,34.40
2022-07-25T06:41:49.660Z,34.16
2022-07-25T06:42:49.810Z,34.02
2022-07-25T06:43:49.651Z,34.14
2022-07-25T06:44:49.810Z,34.59
2022-07-25T06:45:49.667Z,34.53
2022-07-25T06:46:50.178Z,34.93
2022-07-25T06:47:49.651Z,35.03
2022-07-25T06:48:49.954Z,34.38
2022-07-25T06:49:49.575Z,34.28
2022-07-25T06:50:49.616Z,34.43
2022-07-25T06:51:49.545Z,34.35
2022-07-25T06:52:49.554Z,34.47
2022-07-25T06:53:49.680Z,34.66
2022-07-25T06:54:49.495Z,35.05
2022-07-25T06:55:49.644Z,35.45
2022-07-25T06:56:49.565Z,35.98
2022-07-25T06:57:49.505Z,36.43
2022-07-25T06:58:49.492Z,36.06
2022-07-25T06:59:49.452Z,36.18
2022-07-25T07:00:49.556Z,36.47
2022-07-25T07:01:51.808Z,36.41
2022-07-25T07:02:49.807Z,36.63
2022-07-25T07:03:49.727Z,36.76
2022-07-25T07:04:49.492Z,36.91
2022-07-25T07:05:49.397Z,37.14
2022-07-25T07:06:49.419Z,37.33
2022-07-25T07:07:49.355Z,37.36
2022-07-25T07:08:49.816Z,37.43
2022-07-25T07:09:49.335Z,37.58
2022-07-25T07:10:49.496Z,37.18
2022-07-25T07:11:49.347Z,36.81
2022-07-25T07:12:49.286Z,36.85
2022-07-25T07:13:49.351Z,36.87
2022-07-25T07:14:49.625Z,36.99
2022-07-25T07:15:49.404Z,37.38
2022-07-25T07:16:49.305Z,36.72
2022-07-25T07:17:49.331Z,36.45
2022-07-25T07:18:49.693Z,36.51
2022-07-25T07:19:49.335Z,36.59
2022-07-25T07:20:49.292Z,36.97
2022-07-25T07:21:49.333Z,36.94
2022-07-25T07:22:49.186Z,36.82
2022-07-25T07:23:49.195Z,36.80
2022-07-25T07:24:49.186Z,36.81
2022-07-25T07:25:49.337Z,36.94
2022-07-25T07:26:49.258Z,37.33
2022-07-25T07:27:49.346Z,37.63
2022-07-25T07:28:49.167Z,37.86
2022-07-25T07:29:49.346Z,37.94
2022-07-25T07:31:49.591Z,37.50
2022-07-25T07:32:49.204Z,37.23
2022-07-25T07:33:49.088Z,37.38
2022-07-25T07:34:49.171Z,37.26
2022-07-25T07:35:49.045Z,37.29
2022-07-25T07:36:49.011Z,37.56
2022-07-25T07:37:49.083Z,37.50
2022-07-25T07:38:48.961Z,36.65
2022-07-25T07:39:49.037Z,36.47
2022-07-25T07:40:49.186Z,36.63
2022-07-25T07:41:49.029Z,36.81
2022-07-25T07:42:49.246Z,36.51
2022-07-25T07:43:49.027Z,36.53
2022-07-25T07:44:49.177Z,36.80
2022-07-25T07:45:49.036Z,37.03
2022-07-25T07:46:49.001Z,37.16
2022-07-25T07:47:49.111Z,37.25
2022-07-25T07:48:48.996Z,37.04
2022-07-25T07:49:50.467Z,37.25
2022-07-25T07:50:48.870Z,37.29
2022-07-25T07:51:49.039Z,37.26
2022-07-25T07:52:48.884Z,37.00
2022-07-25T07:53:49.108Z,36.97
2022-07-25T07:54:48.801Z,37.36
2022-07-25T07:55:48.916Z,37.37
2022-07-25T07:56:48.867Z,37.10
2022-07-25T07:57:49.016Z,37.11
2022-07-25T07:58:49.202Z,37.47
2022-07-25T07:59:48.756Z,37.41
2022-07-25T08:00:48.871Z,36.78
2022-07-25T08:01:48.830Z,37.22
2022-07-25T08:02:48.936Z,37.71
2022-07-25T08:03:48.762Z,37.58
2022-07-25T08:04:48.710Z,37.71
2022-07-25T08:05:48.690Z,37.98
2022-07-25T08:06:48.676Z,37.75
2022-07-25T08:07:48.670Z,36.88
2022-07-25T08:08:48.665Z,36.85
2022-07-25T08:09:48.703Z,37.26
2022-07-25T08:10:48.691Z,37.63
2022-07-25T08:11:48.626Z,38.22
2022-07-25T08:12:48.640Z,38.28
2022-07-25T08:13:48.701Z,38.16
2022-07-25T08:14:48.597Z,38.34
2022-07-25T08:15:48.794Z,38.51
2022-07-25T08:16:48.616Z,38.04
2022-07-25T08:17:48.548Z,37.75
2022-07-25T08:18:48.575Z,36.55
2022-07-25T08:19:48.527Z,36.36
2022-07-25T08:20:48.560Z,36.89
2022-07-25T08:21:48.573Z,36.63
2022-07-25T08:22:50.871Z,36.87
2022-07-25T08:23:48.505Z,37.19
2022-07-25T08:24:48.530Z,37.45
2022-07-25T08:25:48.450Z,37.71
2022-07-25T08:26:48.632Z,37.57
2022-07-25T08:27:48.720Z,37.10
2022-07-25T08:28:59.850Z,37.15
2022-07-25T08:29:48.416Z,37.22
2022-07-25T08:30:48.624Z,37.16
2022-07-25T08:31:48.463Z,37.25
2022-07-25T08:32:48.425Z,37.37
2022-07-25T08:33:48.437Z,37.28
2022-07-25T08:34:48.347Z,37.64
2022-07-25T08:35:48.377Z,37.83
2022-07-25T08:36:48.566Z,37.14
2022-07-25T08:37:48.406Z,36.97
2022-07-25T08:38:48.633Z,37.31
2022-07-25T08:39:48.372Z,37.53
2022-07-25T08:40:48.530Z,37.91
2022-07-25T08:41:48.371Z,38.27
2022-07-25T08:42:48.551Z,38.51
2022-07-25T08:43:48.401Z,37.79
2022-07-25T08:44:48.312Z,38.19
2022-07-25T08:45:48.395Z,38.56
2022-07-25T08:46:48.294Z,38.75
2022-07-25T08:47:48.188Z,38.79
2022-07-25T08:48:48.303Z,38.66
2022-07-25T08:49:48.376Z,38.62
2022-07-25T08:50:48.313Z,38.75
2022-07-25T08:51:51.782Z,38.69
2022-07-25T08:52:48.215Z,38.54
2022-07-25T08:53:48.789Z,38.62
2022-07-25T08:54:48.242Z,38.96
2022-07-25T08:55:48.161Z,38.53
2022-07-25T08:56:48.246Z,38.54
2022-07-25T08:57:48.081Z,38.56
2022-07-25T08:58:48.210Z,38.72
2022-07-25T08:59:48.052Z,38.75
2022-07-25T09:00:48.283Z,38.77
2022-07-25T09:01:48.190Z,39.00
2022-07-25T09:02:48.058Z,39.05
2022-07-25T09:03:48.056Z,39.22
2022-07-25T09:04:48.216Z,38.58
2022-07-25T09:05:48.077Z,38.53
2022-07-25T09:06:48.005Z,37.76
2022-07-25T09:07:48.056Z,37.82
2022-07-25T09:08:48.216Z,37.63
2022-07-25T09:09:48.071Z,37.33
2022-07-25T09:10:48.222Z,37.04
2022-07-25T09:11:47.914Z,37.04
2022-07-25T09:12:48.021Z,36.75
2022-07-25T09:13:47.928Z,36.84
2022-07-25T09:14:47.900Z,37.00
2022-07-25T09:15:47.854Z,37.16
2022-07-25T09:16:47.858Z,37.19
2022-07-25T09:17:47.857Z,37.31
2022-07-25T09:18:47.906Z,37.10
2022-07-25T09:19:47.816Z,37.22
2022-07-25T09:20:47.917Z,36.76
2022-07-25T09:21:47.796Z,37.34
2022-07-25T09:22:47.777Z,37.68
2022-07-25T09:23:47.777Z,37.83
2022-07-25T09:24:47.923Z,38.14
2022-07-25T09:25:47.785Z,38.36
2022-07-25T09:26:47.740Z,38.29
2022-07-25T09:27:47.762Z,38.34
2022-07-25T09:28:47.745Z,38.28
2022-07-25T09:29:47.703Z,37.97
2022-07-25T09:30:47.827Z,37.83
2022-07-25T09:31:47.989Z,37.95
2022-07-25T09:32:47.669Z,37.88
2022-07-25T09:33:47.763Z,37.73
2022-07-25T09:34:47.634Z,37.68
2022-07-25T09:35:47.716Z,37.38
2022-07-25T09:36:47.619Z,37.60
2022-07-25T09:37:47.745Z,38.27
2022-07-25T09:38:47.596Z,38.53
2022-07-25T09:39:48.399Z,37.97
2022-07-25T09:40:47.602Z,37.11
2022-07-25T09:41:47.797Z,35.88
2022-07-25T09:42:47.582Z,35.78
2022-07-25T09:43:47.759Z,35.20
2022-07-25T09:44:47.571Z,35.94
2022-07-25T09:45:47.752Z,36.53
2022-07-25T09:46:47.728Z,36.67
2022-07-25T09:47:47.726Z,37.11
2022-07-25T09:48:47.694Z,37.18
2022-07-25T09:49:47.471Z,37.53
2022-07-25T09:50:47.585Z,37.92
2022-07-25T09:51:47.445Z,38.00
2022-07-25T09:52:47.646Z,37.75
2022-07-25T09:53:47.417Z,37.79
2022-07-25T09:54:47.566Z,38.12
2022-07-25T09:55:47.408Z,37.88
2022-07-25T09:56:47.583Z,38.23
2022-07-25T09:57:47.492Z,38.35
2022-07-25T09:58:47.352Z,38.25
2022-07-25T09:59:47.449Z,37.63
2022-07-25T10:00:47.576Z,36.94
2022-07-25T10:01:47.522Z,37.25
2022-07-25T10:02:47.379Z,37.25
2022-07-25T10:03:47.507Z,37.10
2022-07-25T10:04:47.297Z,36.91
2022-07-25T10:05:47.430Z,36.53
2022-07-25T10:06:47.257Z,36.43
2022-07-25T10:07:47.416Z,37.09
2022-07-25T10:08:47.277Z,37.67
2022-07-25T10:09:47.485Z,38.13
2022-07-25T10:10:47.246Z,38.39
2022-07-25T10:11:47.403Z,38.25
2022-07-25T10:12:47.288Z,38.04
2022-07-25T10:13:47.432Z,37.92
2022-07-25T10:14:47.262Z,38.10
2022-07-25T10:15:47.211Z,38.35
2022-07-25T10:16:47.421Z,38.65
2022-07-25T10:17:47.116Z,38.58
2022-07-25T10:18:47.245Z,38.62
2022-07-25T10:19:51.776Z,38.63
2022-07-25T10:20:47.405Z,38.27
2022-07-25T10:21:47.086Z,37.11
2022-07-25T10:22:56.186Z,36.18
2022-07-25T10:23:47.116Z,36.18
2022-07-25T10:24:47.490Z,36.51
2022-07-25T10:25:49.188Z,36.09
2022-07-25T10:26:47.086Z,36.16
2022-07-25T10:27:47.031Z,36.82
2022-07-25T10:28:47.031Z,37.18
2022-07-25T10:29:46.992Z,37.41
2022-07-25T10:30:47.030Z,37.19
2022-07-25T10:31:51.078Z,37.54
2022-07-25T10:32:47.021Z,37.91
2022-07-25T10:33:46.955Z,38.00
2022-07-25T10:34:46.956Z,37.98
2022-07-25T10:35:46.936Z,37.97
2022-07-25T10:36:46.941Z,37.47
2022-07-25T10:37:49.137Z,37.45
2022-07-25T10:38:46.946Z,37.76
2022-07-25T10:39:46.877Z,37.82
2022-07-25T10:40:46.939Z,37.94
2022-07-25T10:41:46.847Z,37.91
2022-07-25T10:42:46.941Z,37.91
2022-07-25T10:43:48.691Z,37.85
2022-07-25T10:44:46.953Z,38.13
2022-07-25T10:45:46.856Z,38.48
2022-07-25T10:46:46.812Z,38.79
2022-07-25T10:47:46.772Z,38.65
2022-07-25T10:48:46.974Z,38.60
2022-07-25T10:50:13.531Z,38.28
2022-07-25T10:50:55.393Z,38.22
2022-07-25T10:51:46.782Z,38.04
2022-07-25T10:52:46.938Z,37.80
2022-07-25T10:53:46.791Z,37.61
2022-07-25T10:54:46.757Z,37.85
2022-07-25T10:55:59.817Z,38.22
2022-07-25T10:56:46.947Z,38.31
2022-07-25T10:58:15.249Z,38.34
2022-07-25T10:58:46.683Z,38.23
2022-07-25T10:59:46.791Z,38.20
2022-07-25T11:00:46.731Z,38.46
2022-07-25T11:01:46.835Z,38.13
2022-07-25T11:02:46.651Z,38.05
2022-07-25T11:03:46.772Z,37.82
2022-07-25T11:04:46.611Z,37.63
2022-07-25T11:05:46.776Z,37.95
2022-07-25T11:06:46.687Z,38.13
2022-07-25T11:08:11.166Z,38.44
2022-07-25T11:08:46.625Z,38.81
2022-07-25T11:09:46.537Z,38.29
2022-07-25T11:10:46.616Z,38.34
2022-07-25T11:11:46.566Z,38.63
2022-07-25T11:12:46.636Z,38.66
2022-07-25T11:13:46.466Z,38.20
2022-07-25T11:14:46.637Z,38.31
2022-07-25T11:15:46.472Z,38.32
2022-07-25T11:16:46.743Z,38.47
2022-07-25T11:17:46.535Z,38.38
2022-07-25T11:18:46.621Z,38.31
2022-07-25T11:19:46.485Z,37.82
2022-07-25T11:20:46.425Z,37.72
2022-07-25T11:21:46.450Z,37.53
2022-07-25T11:22:46.442Z,37.60
2022-07-25T11:23:46.396Z,37.37
2022-07-25T11:24:46.626Z,37.56
2022-07-25T11:25:46.452Z,37.58
2022-07-25T11:26:46.335Z,37.53
2022-07-25T11:27:46.466Z,37.11
2022-07-25T11:28:46.368Z,36.97
2022-07-25T11:29:46.315Z,36.96
2022-07-25T11:30:46.291Z,36.84
2022-07-25T11:31:46.606Z,36.87
2022-07-25T11:32:46.294Z,36.76
2022-07-25T11:33:46.462Z,36.80
2022-07-25T11:34:46.387Z,36.60
2022-07-25T11:35:46.306Z,36.55
2022-07-25T11:36:46.212Z,36.69
2022-07-25T11:37:46.435Z,36.87
2022-07-25T11:38:46.172Z,36.69
2022-07-25T11:39:46.185Z,36.54
2022-07-25T11:40:46.346Z,36.35
2022-07-25T11:41:46.187Z,35.94
2022-07-25T11:42:46.316Z,35.72
2022-07-25T11:43:46.156Z,35.98
2022-07-25T11:44:48.084Z,36.44
2022-07-25T11:45:46.158Z,37.06
2022-07-25T11:46:46.167Z,37.31
2022-07-25T11:47:46.076Z,37.26
2022-07-25T11:48:46.167Z,37.37
2022-07-25T11:49:46.152Z,37.57
2022-07-25T11:50:46.066Z,38.00
2022-07-25T11:51:46.032Z,38.28
2022-07-25T11:52:46.111Z,38.54
2022-07-25T11:53:46.013Z,38.58
2022-07-25T11:54:45.991Z,38.32
2022-07-25T11:55:45.981Z,38.39
2022-07-25T11:56:45.972Z,38.53
2022-07-25T11:57:45.956Z,38.14
2022-07-25T11:58:46.047Z,37.82
2022-07-25T11:59:46.142Z,37.71
2022-07-25T12:00:46.073Z,37.33
2022-07-25T12:01:45.906Z,36.84
2022-07-25T12:02:46.112Z,36.57
2022-07-25T12:03:45.925Z,36.32
2022-07-25T12:04:46.026Z,35.78
2022-07-25T12:05:45.941Z,35.53
2022-07-25T12:06:46.010Z,35.12
2022-07-25T12:07:45.871Z,34.73
2022-07-25T12:08:45.830Z,34.65
2022-07-25T12:09:45.845Z,34.38
2022-07-25T12:10:46.006Z,34.26
2022-07-25T12:11:45.890Z,34.26
2022-07-25T12:12:45.751Z,34.22
2022-07-25T12:13:45.827Z,34.00
2022-07-25T12:14:45.977Z,33.94
2022-07-25T12:15:45.816Z,33.75
2022-07-25T12:16:45.948Z,33.88
2022-07-25T12:17:45.846Z,33.82
2022-07-25T12:18:45.697Z,33.81
2022-07-25T12:19:45.688Z,33.88
2022-07-25T12:20:45.965Z,34.03
2022-07-25T12:21:45.796Z,34.14
2022-07-25T12:22:45.771Z,34.22
2022-07-25T12:23:45.811Z,34.14
2022-07-25T12:24:45.685Z,34.03
2022-07-25T12:25:45.610Z,34.04
2022-07-25T12:26:45.652Z,33.94
2022-07-25T12:27:45.571Z,34.04
2022-07-25T12:28:45.732Z,34.07
2022-07-25T12:29:45.811Z,33.95
2022-07-25T12:30:45.850Z,34.00
2022-07-25T12:31:45.827Z,34.09
2022-07-25T12:32:45.676Z,34.19
2022-07-25T12:33:45.545Z,34.21
2022-07-25T12:34:46.736Z,34.21
2022-07-25T12:35:45.466Z,34.26
2022-07-25T12:36:45.657Z,34.28
2022-07-25T12:37:45.457Z,34.22
2022-07-25T12:38:45.527Z,34.18
2022-07-25T12:39:45.545Z,34.24
2022-07-25T12:40:45.734Z,34.25
2022-07-25T12:41:45.487Z,34.22
2022-07-25T12:42:45.403Z,34.19
2022-07-25T12:43:45.496Z,34.14
2022-07-25T12:44:45.674Z,34.14
2022-07-25T12:45:45.656Z,34.16
2022-07-25T12:46:49.479Z,34.13
2022-07-25T12:47:45.390Z,34.02
2022-07-25T12:48:45.431Z,34.00
2022-07-25T12:49:45.325Z,33.94
2022-07-25T12:50:45.316Z,33.75
2022-07-25T12:51:45.578Z,33.87
2022-07-25T12:52:45.292Z,33.92
2022-07-25T12:53:45.277Z,33.97